createdAt,value
2023-12-19T00:01:02.786Z,30.40
2023-12-19T00:03:43.105Z,33.10
2023-12-19T00:06:12.157Z,28.70
2023-12-19T00:08:41.121Z,29.70
2023-12-19T00:11:10.125Z,26.50
2023-12-19T00:13:39.018Z,24.70
2023-12-19T00:16:08.293Z,23.40
2023-12-19T00:18:37.425Z,22.00
2023-12-19T00:21:06.621Z,27.10
2023-12-19T00:23:35.498Z,26.60
2023-12-19T00:26:06.548Z,26.00
2023-12-19T00:28:35.443Z,24.30
2023-12-19T00:31:04.585Z,24.10
2023-12-19T00:33:34.685Z,24.00
2023-12-19T00:36:03.853Z,23.60
2023-12-19T00:38:32.745Z,23.90
2023-12-19T00:41:01.766Z,22.20
2023-12-19T00:43:30.830Z,22.80
2023-12-19T00:45:59.909Z,21.70
2023-12-19T00:48:29.251Z,23.20
2023-12-19T00:50:58.353Z,20.50
2023-12-19T00:53:27.417Z,21.60
2023-12-19T00:55:56.311Z,22.60
2023-12-19T00:58:25.207Z,19.80
2023-12-19T01:00:54.259Z,22.20
2023-12-19T01:03:23.379Z,26.60
2023-12-19T01:05:53.161Z,18.40
2023-12-19T01:08:22.037Z,22.90
2023-12-19T01:10:50.993Z,23.20
2023-12-19T01:13:19.893Z,24.40
2023-12-19T01:15:50.851Z,25.50
2023-12-19T01:18:20.157Z,22.10
2023-12-19T01:20:49.379Z,25.90
2023-12-19T01:23:18.424Z,27.80
2023-12-19T01:25:47.657Z,92.50
2023-12-19T01:28:16.526Z,55.60
2023-12-19T01:30:45.671Z,27.60
2023-12-19T01:33:15.039Z,19.90
2023-12-19T01:35:44.218Z,19.40
2023-12-19T01:38:15.145Z,17.10
2023-12-19T01:40:44.759Z,19.90
2023-12-19T01:43:20.458Z,21.90
2023-12-19T01:45:52.782Z,24.70
2023-12-19T01:48:24.637Z,45.80
2023-12-19T01:50:53.879Z,61.90
2023-12-19T01:53:25.154Z,31.20
2023-12-19T01:55:57.533Z,43.50
2023-12-19T01:58:27.018Z,20.40
2023-12-19T02:00:56.799Z,23.50
2023-12-19T02:03:26.168Z,21.40
2023-12-19T02:05:55.886Z,24.90
2023-12-19T02:08:25.200Z,19.70
2023-12-19T02:10:54.018Z,19.80
2023-12-19T02:13:23.085Z,20.10
2023-12-19T02:15:53.025Z,22.20
2023-12-19T02:18:23.158Z,27.60
2023-12-19T02:20:52.108Z,30.30
2023-12-19T02:23:21.109Z,29.30
2023-12-19T02:25:52.150Z,37.30
2023-12-19T02:28:21.145Z,20.80
2023-12-19T02:30:50.343Z,21.40
2023-12-19T02:33:20.228Z,21.70
2023-12-19T02:35:49.259Z,23.70
2023-12-19T02:38:18.462Z,25.40
2023-12-19T02:40:47.381Z,21.90
2023-12-19T02:43:16.478Z,21.90
2023-12-19T02:45:45.556Z,22.10
2023-12-19T02:48:14.567Z,23.40
2023-12-19T02:50:43.522Z,23.00
2023-12-19T02:53:12.456Z,22.70
2023-12-19T02:55:43.457Z,31.80
2023-12-19T02:58:12.364Z,23.80
2023-12-19T03:00:41.420Z,22.60
2023-12-19T03:03:10.712Z,26.50
2023-12-19T03:05:39.915Z,24.20
2023-12-19T03:08:08.943Z,25.60
2023-12-19T03:10:38.030Z,22.20
2023-12-19T03:13:07.198Z,22.00
2023-12-19T03:15:37.988Z,21.90
2023-12-19T03:18:07.107Z,22.20
2023-12-19T03:20:37.809Z,23.50
2023-12-19T03:23:06.683Z,21.50
2023-12-19T03:25:35.576Z,23.60
2023-12-19T03:28:05.167Z,26.70
2023-12-19T03:30:34.268Z,30.00
2023-12-19T03:33:03.933Z,26.90
2023-12-19T03:35:33.798Z,28.60
2023-12-19T03:38:02.913Z,68.90
2023-12-19T03:40:32.025Z,44.80
2023-12-19T03:43:00.830Z,24.80
2023-12-19T03:45:29.825Z,24.30
2023-12-19T03:47:59.004Z,23.40
2023-12-19T03:50:28.086Z,27.80
2023-12-19T03:52:56.992Z,23.50
2023-12-19T03:55:25.881Z,25.80
2023-12-19T03:57:54.927Z,31.40
2023-12-19T04:00:23.909Z,28.00
2023-12-19T04:02:52.948Z,37.10
2023-12-19T04:05:22.061Z,25.40
2023-12-19T04:07:51.042Z,24.30
2023-12-19T04:10:20.450Z,24.60
2023-12-19T04:12:49.353Z,23.10
2023-12-19T04:15:18.337Z,28.10
2023-12-19T04:17:47.438Z,24.50
2023-12-19T04:20:16.541Z,23.90
2023-12-19T04:22:45.849Z,22.10
2023-12-19T04:25:15.095Z,22.50
2023-12-19T04:27:44.178Z,20.50
2023-12-19T04:30:13.766Z,18.90
2023-12-19T04:32:43.766Z,22.20
2023-12-19T04:35:12.677Z,20.40
2023-12-19T04:37:42.034Z,22.00
2023-12-19T04:40:11.808Z,21.70
2023-12-19T04:42:41.014Z,19.40
2023-12-19T04:45:10.944Z,18.60
2023-12-19T04:47:39.800Z,19.90
2023-12-19T04:50:10.070Z,22.00
2023-12-19T04:52:40.179Z,24.00
2023-12-19T04:55:10.023Z,25.30
2023-12-19T04:57:38.934Z,22.80
2023-12-19T05:00:09.896Z,21.90
2023-12-19T05:02:38.884Z,20.00
2023-12-19T05:05:08.756Z,20.30
2023-12-19T05:07:39.311Z,20.70
2023-12-19T05:10:09.829Z,18.90
2023-12-19T05:12:40.055Z,19.30
2023-12-19T05:15:09.769Z,20.50
2023-12-19T05:17:38.733Z,20.70
2023-12-19T05:20:09.114Z,21.10
2023-12-19T05:22:38.067Z,21.10
2023-12-19T05:25:08.535Z,20.40
2023-12-19T05:27:38.431Z,20.30
2023-12-19T05:30:08.840Z,20.30
2023-12-19T05:32:37.839Z,22.40
2023-12-19T05:35:07.957Z,23.80
2023-12-19T05:37:39.298Z,22.90
2023-12-19T05:40:09.894Z,21.10
2023-12-19T05:42:39.067Z,20.60
2023-12-19T05:45:09.373Z,19.30
2023-12-19T05:47:38.810Z,20.30
2023-12-19T05:50:08.671Z,18.60
2023-12-19T05:52:37.774Z,19.20
2023-12-19T05:55:07.427Z,21.30
2023-12-19T05:57:38.270Z,20.90
2023-12-19T06:00:09.998Z,19.10
2023-12-19T06:02:39.795Z,20.00
2023-12-19T06:05:09.743Z,21.20
2023-12-19T06:07:39.382Z,20.80
2023-12-19T06:10:14.164Z,24.00
2023-12-19T06:12:43.714Z,24.30
2023-12-19T06:15:15.930Z,24.00
2023-12-19T06:17:47.909Z,22.00
2023-12-19T06:20:16.872Z,25.20
2023-12-19T06:22:46.513Z,25.70
2023-12-19T06:25:15.678Z,25.10
2023-12-19T06:27:45.764Z,29.40
2023-12-19T06:30:23.514Z,26.80
2023-12-19T06:32:57.406Z,21.70
2023-12-19T06:35:30.091Z,23.90
2023-12-19T06:37:59.013Z,23.50
2023-12-19T06:40:28.097Z,25.70
2023-12-19T06:42:57.223Z,26.80
2023-12-19T06:45:26.239Z,25.40
2023-12-19T06:47:55.506Z,21.90
2023-12-19T06:50:25.667Z,22.20
2023-12-19T06:52:55.928Z,22.40
2023-12-19T06:55:26.397Z,22.90
2023-12-19T06:57:57.036Z,20.20
2023-12-19T07:00:26.113Z,20.40
2023-12-19T07:02:55.104Z,24.20
2023-12-19T07:05:24.446Z,27.60
2023-12-19T07:07:53.462Z,25.00
2023-12-19T07:10:22.463Z,25.60
2023-12-19T07:12:51.694Z,25.00
2023-12-19T07:15:20.944Z,23.80
2023-12-19T07:17:50.316Z,24.60
2023-12-19T07:20:19.797Z,24.90
2023-12-19T07:22:48.506Z,25.70
2023-12-19T07:25:17.259Z,25.10
2023-12-19T07:27:46.734Z,24.50
2023-12-19T07:30:15.911Z,24.30
2023-12-19T07:32:45.247Z,25.30
2023-12-19T07:35:15.773Z,23.10
2023-12-19T07:37:44.688Z,22.20
2023-12-19T07:40:14.351Z,22.00
2023-12-19T07:42:46.172Z,22.10
2023-12-19T07:45:15.286Z,22.20
2023-12-19T07:47:44.061Z,22.80
2023-12-19T07:50:13.229Z,22.70
2023-12-19T07:52:42.530Z,20.80
2023-12-19T07:55:12.161Z,19.70
2023-12-19T07:57:41.368Z,19.50
2023-12-19T08:00:12.556Z,19.70
2023-12-19T08:02:44.520Z,21.00
2023-12-19T08:05:13.886Z,20.70
2023-12-19T08:07:43.109Z,21.80
2023-12-19T08:10:12.020Z,21.40
2023-12-19T08:12:41.002Z,21.00
2023-12-19T08:15:11.876Z,22.00
2023-12-19T08:17:40.852Z,24.10
2023-12-19T08:20:12.142Z,22.60
2023-12-19T08:22:41.129Z,21.90
2023-12-19T08:25:13.185Z,24.10
2023-12-19T08:28:24.972Z,24.60
2023-12-19T08:30:53.861Z,20.30
2023-12-19T08:33:24.461Z,17.70
2023-12-19T08:35:57.686Z,14.30
2023-12-19T08:38:28.265Z,13.10
2023-12-19T08:40:59.537Z,14.60
2023-12-19T08:43:36.223Z,13.00
2023-12-19T08:46:09.318Z,13.50
2023-12-19T08:48:58.735Z,12.40
2023-12-19T08:51:33.447Z,13.00
2023-12-19T08:54:05.982Z,13.20
2023-12-19T08:56:34.864Z,13.10
2023-12-19T08:59:23.292Z,13.30
2023-12-19T09:01:55.151Z,13.80
2023-12-19T09:04:27.282Z,13.00
2023-12-19T09:06:56.519Z,13.40
2023-12-19T09:09:25.601Z,14.80
2023-12-19T09:12:00.638Z,15.50
2023-12-19T09:14:29.524Z,14.80
2023-12-19T09:16:58.304Z,14.90
2023-12-19T09:19:28.071Z,13.80
2023-12-19T09:21:57.088Z,13.70
2023-12-19T09:24:32.022Z,13.00
2023-12-19T09:27:01.364Z,14.00
2023-12-19T09:29:30.146Z,11.70
2023-12-19T09:32:02.029Z,11.10
2023-12-19T09:34:30.831Z,12.20
2023-12-19T09:37:00.220Z,12.50
2023-12-19T09:39:29.175Z,12.30
2023-12-19T09:42:01.741Z,10.50
2023-12-19T09:45:04.052Z,11.50
2023-12-19T09:47:44.690Z,8.40
2023-12-19T09:50:21.542Z,7.50
2023-12-19T09:52:50.519Z,7.10
2023-12-19T09:55:34.645Z,6.50
2023-12-19T09:58:06.861Z,7.00
2023-12-19T10:00:47.020Z,7.30
2023-12-19T10:03:19.471Z,8.90
2023-12-19T10:17:30.848Z,9.80
2023-12-19T10:20:18.774Z,10.60
2023-12-19T10:23:10.937Z,9.50
2023-12-19T10:25:45.705Z,8.90
2023-12-19T10:28:28.579Z,9.10
2023-12-19T10:31:17.508Z,8.90
2023-12-19T10:34:46.980Z,9.30
2023-12-19T10:37:28.538Z,8.40
2023-12-19T10:40:23.373Z,8.60
2023-12-19T10:43:11.747Z,9.60
2023-12-19T10:45:42.449Z,9.40
2023-12-19T10:48:11.438Z,10.30
2023-12-19T10:50:46.950Z,10.60
2023-12-19T10:53:16.614Z,10.20
2023-12-19T10:55:56.606Z,9.40
2023-12-19T10:58:54.499Z,7.90
2023-12-19T11:01:46.626Z,7.80
2023-12-19T11:04:28.352Z,8.20
2023-12-19T11:07:16.532Z,10.40
2023-12-19T11:10:08.830Z,10.20
2023-12-19T11:12:39.211Z,10.00
2023-12-19T11:15:12.101Z,9.40
2023-12-19T11:20:47.363Z,9.30
2023-12-19T11:23:50.242Z,9.60
2023-12-19T11:26:36.048Z,9.20
2023-12-19T11:29:46.306Z,8.80
2023-12-19T11:32:36.313Z,8.00
2023-12-19T11:35:15.365Z,8.70
2023-12-19T11:37:48.023Z,8.60
2023-12-19T11:40:52.262Z,9.70
2023-12-19T11:43:33.152Z,9.30
2023-12-19T11:46:05.715Z,9.50
2023-12-19T11:48:47.059Z,9.10
2023-12-19T11:51:48.324Z,9.10
2023-12-19T11:54:19.477Z,8.90
2023-12-19T11:57:00.385Z,8.80
2023-12-19T11:59:54.250Z,8.60
2023-12-19T12:02:38.448Z,8.60
2023-12-19T12:05:10.334Z,9.60
2023-12-19T12:07:52.972Z,8.70
2023-12-19T12:10:26.863Z,7.70
2023-12-19T12:13:01.088Z,9.00
2023-12-19T12:15:32.537Z,9.20
2023-12-19T12:18:06.904Z,9.00
2023-12-19T12:20:36.837Z,9.10
2023-12-19T12:23:06.053Z,8.90
2023-12-19T12:25:35.219Z,9.70
2023-12-19T12:28:11.691Z,9.00
2023-12-19T12:30:40.920Z,9.30
2023-12-19T12:33:10.256Z,9.30
2023-12-19T12:35:40.664Z,9.60
2023-12-19T12:38:19.398Z,9.80
2023-12-19T12:41:03.605Z,10.10
2023-12-19T12:43:58.750Z,10.80
2023-12-19T12:46:27.730Z,10.20
2023-12-19T12:48:56.723Z,9.20
2023-12-19T12:51:36.438Z,9.20
2023-12-19T12:54:17.808Z,8.50
2023-12-19T12:56:47.347Z,8.60
2023-12-19T12:59:19.075Z,9.00
2023-12-19T13:01:48.710Z,9.30
2023-12-19T13:04:19.037Z,8.90
2023-12-19T13:06:54.216Z,9.60
2023-12-19T13:09:25.668Z,10.10
2023-12-19T13:12:02.903Z,10.40
2023-12-19T13:14:31.956Z,9.90
2023-12-19T13:17:00.857Z,10.40
2023-12-19T13:19:29.690Z,10.20
2023-12-19T13:21:58.722Z,9.80
2023-12-19T13:24:27.539Z,9.80
2023-12-19T13:26:56.333Z,10.10
2023-12-19T13:29:25.188Z,10.40
2023-12-19T13:31:53.915Z,10.20
2023-12-19T13:34:22.844Z,10.40
2023-12-19T13:36:51.807Z,10.80
2023-12-19T13:39:21.846Z,10.60
2023-12-19T13:41:52.768Z,11.70
2023-12-19T13:44:21.430Z,11.70
2023-12-19T13:46:51.576Z,11.60
2023-12-19T13:49:20.778Z,11.70
2023-12-19T13:51:49.672Z,11.50
2023-12-19T13:54:18.412Z,13.00
2023-12-19T13:56:47.438Z,13.70
2023-12-19T13:59:16.251Z,11.50
2023-12-19T14:01:46.186Z,12.00
2023-12-19T14:04:17.291Z,12.90
2023-12-19T14:06:46.149Z,13.50
2023-12-19T14:09:20.597Z,14.00
2023-12-19T14:11:52.860Z,14.10
2023-12-19T14:14:21.637Z,15.10
2023-12-19T14:16:50.378Z,15.00
2023-12-19T14:19:19.357Z,16.00
2023-12-19T14:21:49.997Z,14.60
2023-12-19T14:24:19.634Z,15.60
2023-12-19T14:26:48.366Z,14.50
2023-12-19T14:29:17.622Z,15.30
2023-12-19T14:31:47.382Z,16.90
2023-12-19T14:34:17.250Z,16.10
2023-12-19T14:36:47.360Z,16.70
2023-12-19T14:39:16.903Z,19.00
2023-12-19T14:41:48.232Z,18.80
2023-12-19T14:44:17.332Z,17.10
2023-12-19T14:46:45.997Z,18.00
2023-12-19T14:49:14.916Z,19.30
2023-12-19T14:51:44.731Z,20.30
2023-12-19T14:54:13.605Z,19.60
2023-12-19T14:56:43.936Z,19.70
2023-12-19T14:59:12.997Z,16.80
2023-12-19T15:01:41.895Z,18.10
2023-12-19T15:04:10.801Z,21.50
2023-12-19T15:06:39.725Z,25.00
2023-12-19T15:09:09.508Z,27.10
2023-12-19T15:11:38.229Z,29.50
2023-12-19T15:14:08.417Z,23.40
2023-12-19T15:16:39.432Z,26.20
2023-12-19T15:19:09.190Z,26.20
2023-12-19T15:21:38.312Z,25.30
2023-12-19T15:24:07.616Z,24.40
2023-12-19T15:26:40.348Z,27.40
2023-12-19T15:29:13.203Z,26.30
2023-12-19T15:31:44.123Z,31.80
2023-12-19T15:34:14.877Z,26.80
2023-12-19T15:36:43.851Z,24.60
2023-12-19T15:39:12.654Z,25.90
2023-12-19T15:41:41.432Z,34.00
2023-12-19T15:44:11.920Z,28.40
2023-12-19T15:46:42.540Z,29.00
2023-12-19T15:49:14.761Z,29.20
2023-12-19T15:51:44.137Z,26.20
2023-12-19T15:54:12.888Z,24.90
2023-12-19T15:56:44.024Z,23.40
2023-12-19T15:59:12.840Z,22.40
2023-12-19T16:01:41.703Z,23.70
2023-12-19T16:04:10.840Z,23.70
2023-12-19T16:06:39.957Z,23.10
2023-12-19T16:09:09.200Z,22.30
2023-12-19T16:11:38.089Z,24.20
2023-12-19T16:14:06.908Z,26.10
2023-12-19T16:16:40.204Z,24.90
2023-12-19T16:19:09.509Z,25.30
2023-12-19T16:21:38.372Z,25.10
2023-12-19T16:24:07.640Z,24.30
2023-12-19T16:26:36.332Z,23.80
2023-12-19T16:29:05.103Z,24.20
2023-12-19T16:31:35.408Z,25.30
2023-12-19T16:34:04.451Z,23.60
2023-12-19T16:36:35.342Z,25.60
2023-12-19T16:39:09.084Z,43.10
2023-12-19T16:41:37.792Z,29.60
2023-12-19T16:44:06.502Z,35.50
2023-12-19T16:46:42.202Z,31.00
2023-12-19T16:49:14.233Z,27.90
2023-12-19T16:51:43.453Z,30.40
2023-12-19T16:54:12.604Z,23.60
2023-12-19T16:56:41.295Z,30.20
2023-12-19T16:59:10.038Z,40.80
2023-12-19T17:01:38.906Z,27.80
2023-12-19T17:04:07.940Z,39.20
2023-12-19T17:06:37.226Z,45.50
2023-12-19T17:09:06.172Z,44.90
2023-12-19T17:11:34.877Z,38.30
2023-12-19T17:14:03.750Z,33.60
2023-12-19T17:16:32.581Z,91.50
2023-12-19T17:19:01.423Z,35.90
2023-12-19T17:21:30.323Z,55.40
2023-12-19T17:23:59.100Z,30.30
2023-12-19T17:26:27.825Z,30.60
2023-12-19T17:28:57.084Z,26.50
2023-12-19T17:31:26.113Z,34.60
2023-12-19T17:33:54.989Z,25.40
2023-12-19T17:36:25.734Z,48.90
2023-12-19T17:38:54.498Z,29.70
2023-12-19T17:41:23.289Z,24.70
2023-12-19T17:43:52.063Z,24.40
2023-12-19T17:46:23.905Z,24.80
2023-12-19T17:48:52.749Z,24.50
2023-12-19T17:51:24.790Z,26.60
2023-12-19T17:53:53.742Z,25.80
2023-12-19T17:56:23.192Z,24.00
2023-12-19T17:58:52.020Z,24.30
2023-12-19T18:01:20.810Z,24.40
2023-12-19T18:03:49.909Z,35.00
2023-12-19T18:06:22.404Z,28.10
2023-12-19T18:08:51.238Z,29.90
2023-12-19T18:11:20.009Z,31.90
2023-12-19T18:13:48.819Z,34.10
2023-12-19T18:16:17.982Z,36.90
2023-12-19T18:18:46.899Z,35.70
2023-12-19T18:21:15.705Z,38.10
2023-12-19T18:23:44.514Z,38.70
2023-12-19T18:26:13.491Z,31.00
2023-12-19T18:28:42.238Z,27.40
2023-12-19T18:31:11.100Z,29.60
2023-12-19T18:33:40.305Z,29.90
2023-12-19T18:36:09.537Z,29.20
2023-12-19T18:38:38.325Z,29.50
2023-12-19T18:41:14.388Z,24.50
2023-12-19T18:43:48.302Z,28.10
2023-12-19T18:46:20.906Z,26.50
2023-12-19T18:48:50.421Z,23.80
2023-12-19T18:51:19.425Z,26.00
2023-12-19T18:53:48.301Z,26.20
2023-12-19T18:56:17.250Z,26.90
2023-12-19T18:58:46.844Z,24.30
2023-12-19T19:01:15.644Z,25.10
2023-12-19T19:03:44.689Z,24.90
2023-12-19T19:06:13.681Z,26.60
2023-12-19T19:08:43.438Z,28.20
2023-12-19T19:11:12.299Z,28.30
2023-12-19T19:13:41.513Z,26.50
2023-12-19T19:16:30.417Z,26.90
2023-12-19T19:19:30.645Z,27.50
2023-12-19T19:21:59.529Z,27.30
2023-12-19T19:24:28.606Z,26.50
2023-12-19T19:26:57.872Z,26.10
2023-12-19T19:29:29.246Z,24.50
2023-12-19T19:31:58.062Z,24.20
2023-12-19T19:34:27.020Z,23.10
2023-12-19T19:36:55.849Z,23.40
2023-12-19T19:39:31.758Z,22.40
2023-12-19T19:42:01.454Z,20.10
2023-12-19T19:44:30.874Z,20.40
2023-12-19T19:46:59.662Z,20.40
2023-12-19T19:49:28.403Z,21.40
2023-12-19T19:51:57.566Z,21.00
2023-12-19T19:54:26.355Z,19.70
2023-12-19T19:56:55.107Z,26.00
2023-12-19T19:59:25.686Z,23.00
2023-12-19T20:01:54.585Z,25.50
2023-12-19T20:04:25.157Z,29.90
2023-12-19T20:06:54.010Z,24.20
2023-12-19T20:09:23.258Z,25.90
2023-12-19T20:11:52.033Z,21.60
2023-12-19T20:14:21.130Z,22.40
2023-12-19T20:16:50.006Z,20.40
2023-12-19T20:19:18.725Z,21.00
2023-12-19T20:21:47.920Z,23.30
2023-12-19T20:24:16.705Z,21.90
2023-12-19T20:26:47.016Z,22.20
2023-12-19T20:29:16.822Z,23.70
2023-12-19T20:31:45.826Z,23.30
2023-12-19T20:34:14.811Z,22.40
2023-12-19T20:36:43.720Z,24.40
2023-12-19T20:39:12.980Z,22.80
2023-12-19T20:41:43.816Z,21.80
2023-12-19T20:44:12.846Z,22.60
2023-12-19T20:46:42.783Z,21.00
2023-12-19T20:49:13.126Z,20.60
2023-12-19T20:51:42.073Z,22.70
2023-12-19T20:54:13.291Z,22.90
2023-12-19T20:56:44.543Z,23.70
2023-12-19T20:59:13.341Z,24.40
2023-12-19T21:01:42.332Z,24.90
2023-12-19T21:04:11.615Z,23.70
2023-12-19T21:06:41.884Z,23.40
2023-12-19T21:09:13.026Z,24.90
2023-12-19T21:11:41.780Z,24.20
2023-12-19T21:14:12.669Z,25.10
2023-12-19T21:16:58.009Z,23.40
2023-12-19T21:19:34.508Z,24.40
2023-12-19T21:22:03.647Z,23.60
2023-12-19T21:24:33.171Z,26.10
2023-12-19T21:27:03.714Z,24.40
2023-12-19T21:29:33.013Z,25.30
2023-12-19T21:32:01.852Z,24.40
2023-12-19T21:34:31.077Z,25.40
2023-12-19T21:36:59.973Z,27.20
2023-12-19T21:39:30.722Z,28.20
2023-12-19T21:42:00.101Z,28.80
2023-12-19T21:44:31.136Z,28.00
2023-12-19T21:47:00.125Z,28.00
2023-12-19T21:49:28.908Z,28.70
2023-12-19T21:51:57.734Z,27.10
2023-12-19T21:54:26.570Z,27.40
2023-12-19T21:56:55.326Z,25.90
2023-12-19T21:59:24.076Z,28.00
2023-12-19T22:01:52.966Z,28.00
2023-12-19T22:04:21.870Z,28.20
2023-12-19T22:06:50.801Z,29.00
2023-12-19T22:09:19.649Z,27.60
2023-12-19T22:11:53.024Z,28.60
2023-12-19T22:14:21.997Z,27.40
2023-12-19T22:16:50.681Z,26.30
2023-12-19T22:19:19.601Z,28.40
2023-12-19T22:21:48.457Z,29.40
2023-12-19T22:24:19.491Z,28.90
2023-12-19T22:26:48.233Z,26.80
2023-12-19T22:29:18.878Z,26.40
2023-12-19T22:31:48.601Z,27.00
2023-12-19T22:34:19.408Z,28.00
2023-12-19T22:36:48.224Z,26.00
2023-12-19T22:39:18.195Z,31.10
2023-12-19T22:41:46.987Z,30.30
2023-12-19T22:44:15.816Z,28.30
2023-12-19T22:46:44.524Z,28.50
2023-12-19T22:49:13.400Z,31.10
2023-12-19T22:51:42.809Z,28.30
2023-12-19T22:54:11.714Z,29.60
2023-12-19T22:56:40.410Z,30.70
2023-12-19T22:59:09.537Z,30.40
2023-12-19T23:01:46.221Z,29.80
2023-12-19T23:04:22.363Z,26.60
2023-12-19T23:06:51.428Z,25.80
2023-12-19T23:09:20.339Z,27.20
2023-12-19T23:11:49.345Z,26.80
2023-12-19T23:14:19.499Z,25.10
2023-12-19T23:16:48.795Z,23.90
2023-12-19T23:19:17.786Z,25.20
2023-12-19T23:21:46.587Z,24.30
2023-12-19T23:24:15.960Z,22.40
2023-12-19T23:26:44.582Z,23.40
2023-12-19T23:29:13.298Z,23.20
2023-12-19T23:31:43.061Z,25.20
2023-12-19T23:34:12.512Z,23.60
2023-12-19T23:36:41.416Z,23.30
2023-12-19T23:39:10.324Z,24.60
2023-12-19T23:41:39.149Z,23.10
2023-12-19T23:44:07.834Z,24.10
2023-12-19T23:46:36.594Z,22.50
2023-12-19T23:49:05.493Z,21.40
2023-12-19T23:51:34.213Z,23.00
2023-12-19T23:54:02.973Z,23.30
2023-12-19T23:56:32.056Z,22.80
2023-12-19T23:59:01.025Z,24.80
